createdAt,value
2022-09-21T00:12:45.047Z,2378.11401
2022-09-21T00:27:47.318Z,708.12054
2022-09-21T00:42:49.561Z,620.28326
2022-09-21T00:57:51.822Z,536.78357
2022-09-21T01:12:54.467Z,416.41394
2022-09-21T01:27:56.701Z,287.36899
2022-09-21T01:42:58.953Z,147.47993
2022-09-21T01:58:01.154Z,41.20763
2022-09-21T02:13:03.356Z,4.33765
2022-09-21T02:28:05.594Z,0
2022-09-21T02:43:07.854Z,0
2022-09-21T02:58:10.239Z,0
2022-09-21T03:13:12.776Z,0
2022-09-21T03:28:15.039Z,0
2022-09-21T03:43:17.423Z,0
2022-09-21T03:58:19.611Z,0
2022-09-21T04:13:21.834Z,0
2022-09-21T04:28:24.250Z,0
2022-09-21T04:43:26.542Z,0
2022-09-21T04:58:28.775Z,0
2022-09-21T05:13:30.967Z,0
2022-09-21T05:28:36.597Z,0
2022-09-21T05:43:42.378Z,0
2022-09-21T05:58:44.853Z,0
2022-09-21T06:13:47.307Z,0
2022-09-21T06:28:49.932Z,0
2022-09-21T06:43:52.225Z,0
2022-09-21T06:58:54.504Z,0
2022-09-21T07:13:56.891Z,0
2022-09-21T07:28:59.091Z,0
2022-09-21T07:44:01.432Z,0
2022-09-21T07:59:03.786Z,0
2022-09-21T08:14:06.388Z,0
2022-09-21T08:29:08.687Z,0
2022-09-21T08:44:10.918Z,0
2022-09-21T08:59:13.202Z,0
2022-09-21T09:14:15.428Z,0
2022-09-21T09:29:17.675Z,0
2022-09-21T09:44:19.975Z,0
2022-09-21T09:59:22.353Z,0
2022-09-21T10:14:24.538Z,0
2022-09-21T10:29:26.763Z,0
2022-09-21T10:44:29.015Z,0
2022-09-21T10:59:31.163Z,0
2022-09-21T11:14:33.518Z,0
2022-09-21T11:29:35.866Z,0
2022-09-21T11:44:38.025Z,0
2022-09-21T11:59:40.295Z,0
2022-09-21T12:14:42.710Z,0
2022-09-21T12:29:44.911Z,0
2022-09-21T12:44:47.126Z,0
2022-09-21T12:59:49.530Z,0
2022-09-21T13:14:51.731Z,4.33765
2022-09-21T13:29:53.941Z,36.86998
2022-09-21T13:44:56.284Z,132.29817
2022-09-21T13:59:58.512Z,251.58342
2022-09-21T14:15:00.715Z,361.10895
2022-09-21T14:30:06.456Z,466.29684
2022-09-21T14:45:09.556Z,15665.40527
2022-09-21T15:00:11.896Z,9898.50586
2022-09-21T15:15:14.162Z,2340.15942
2022-09-21T15:30:16.545Z,3109.00708
2022-09-21T15:45:18.900Z,9893.08398
2022-09-21T16:00:21.158Z,3682.66064
2022-09-21T16:15:23.345Z,3782.42651
2022-09-21T16:30:25.629Z,5116.25244
2022-09-21T16:45:27.923Z,3528.67432
2022-09-21T17:00:30.250Z,4106.66553
2022-09-21T17:15:32.690Z,4410.30078
2022-09-21T17:30:34.810Z,5436.15381
2022-09-21T17:45:37.037Z,6404.53271
2022-09-21T18:00:39.252Z,6001.13184
2022-09-21T18:15:41.556Z,5251.80371
2022-09-21T18:30:43.840Z,5233.36865
2022-09-21T18:45:46.020Z,5141.19385
2022-09-21T19:00:48.281Z,5474.10791
2022-09-21T19:16:00.215Z,5104.32373
2022-09-21T19:31:03.582Z,6006.5542
2022-09-21T19:46:05.915Z,6662.62305
2022-09-21T20:01:08.324Z,6722.26562
2022-09-21T20:16:13.034Z,6679.97314
2022-09-21T20:31:18.226Z,6457.66895
2022-09-21T20:46:20.578Z,6003.30078
2022-09-21T21:01:22.928Z,5555.43896
2022-09-21T21:16:25.302Z,5501.21826
2022-09-21T21:31:27.614Z,6266.8125
2022-09-21T21:46:30.009Z,5759.30811
2022-09-21T22:01:32.342Z,5936.06738
2022-09-21T22:16:34.750Z,6176.80664
2022-09-21T22:31:37.134Z,9367.14453
2022-09-21T22:46:39.492Z,9695.7207
2022-09-21T23:16:42.905Z,11016.53418
2022-09-21T23:31:46.127Z,10795.31445
2022-09-21T23:46:48.834Z,10088.27832
